Terminal Aerodrome Forecast
Issued by NWS

Home | Current Version | Previous Version | Text Only | Print | Product List | Glossary On
Versions: 1 2 3 4 5 6 7 8 9 10 11 12 13 14 15 16 17 18 19 20 21 22 23 24
000
FTUS45 KVEF 010800 AAA
TAFLAS
TAF AMD
KLAS 010847Z 0109/0206 19012KT P6SM SCT160 BKN250
     FM011000 20013G19KT P6SM FEW070 BKN100
     FM011400 21016G25KT P6SM VCSH FEW030 BKN050 BKN200
     FM011800 21020G30KT P6SM FEW050 SCT090 BKN200
     FM020200 21012G20KT P6SM FEW070 SCT100 BKN200=

USA.gov is the U.S. government's official web portal to all federal, state and local government web resources and services.